sensor_id;sensor_type;location;lat;lon;timestamp;temperature;humidity
66019;HTU21D;52787;51.084;5.816;2024-03-02T00:00:21;11.42;58.73
66019;HTU21D;52787;51.084;5.816;2024-03-02T00:02:50;11.46;58.70
66019;HTU21D;52787;51.084;5.816;2024-03-02T00:05:19;11.46;58.63
66019;HTU21D;52787;51.084;5.816;2024-03-02T00:07:52;11.45;58.69
66019;HTU21D;52787;51.084;5.816;2024-03-02T00:10:33;11.48;58.64
66019;HTU21D;52787;51.084;5.816;2024-03-02T00:13:02;11.49;58.64
66019;HTU21D;52787;51.084;5.816;2024-03-02T00:15:53;11.54;58.71
66019;HTU21D;52787;51.084;5.816;2024-03-02T00:20:53;11.53;58.51
66019;HTU21D;52787;51.084;5.816;2024-03-02T00:23:20;11.54;58.58
66019;HTU21D;52787;51.084;5.816;2024-03-02T00:25:49;11.53;58.61
66019;HTU21D;52787;51.084;5.816;2024-03-02T00:28:24;11.49;58.61
66019;HTU21D;52787;51.084;5.816;2024-03-02T00:31:11;11.51;58.86
66019;HTU21D;52787;51.084;5.816;2024-03-02T00:33:46;11.55;58.89
66019;HTU21D;52787;51.084;5.816;2024-03-02T00:36:21;11.55;58.77
66019;HTU21D;52787;51.084;5.816;2024-03-02T00:38:52;11.58;58.83
66019;HTU21D;52787;51.084;5.816;2024-03-02T00:41:37;11.56;58.83
66019;HTU21D;52787;51.084;5.816;2024-03-02T00:44:13;11.57;58.83
66019;HTU21D;52787;51.084;5.816;2024-03-02T00:46:40;11.57;58.88
66019;HTU21D;52787;51.084;5.816;2024-03-02T00:49:23;11.58;58.72
66019;HTU21D;52787;51.084;5.816;2024-03-02T00:51:51;11.58;58.78
66019;HTU21D;52787;51.084;5.816;2024-03-02T00:54:25;11.55;59.71
66019;HTU21D;52787;51.084;5.816;2024-03-02T00:56:55;11.55;60.24
66019;HTU21D;52787;51.084;5.816;2024-03-02T00:59:23;11.53;61.32
66019;HTU21D;52787;51.084;5.816;2024-03-02T01:01:49;11.38;64.01
66019;HTU21D;52787;51.084;5.816;2024-03-02T01:04:15;11.16;66.46
66019;HTU21D;52787;51.084;5.816;2024-03-02T01:06:44;10.89;69.33
66019;HTU21D;52787;51.084;5.816;2024-03-02T01:09:11;10.66;70.70
66019;HTU21D;52787;51.084;5.816;2024-03-02T01:11:37;10.40;71.93
66019;HTU21D;52787;51.084;5.816;2024-03-02T01:14:03;10.21;72.80
66019;HTU21D;52787;51.084;5.816;2024-03-02T01:16:30;10.04;72.87
66019;HTU21D;52787;51.084;5.816;2024-03-02T01:18:55;9.92;74.27
66019;HTU21D;52787;51.084;5.816;2024-03-02T01:21:21;9.81;75.05
66019;HTU21D;52787;51.084;5.816;2024-03-02T01:23:47;9.72;76.00
66019;HTU21D;52787;51.084;5.816;2024-03-02T01:26:13;9.64;76.37
66019;HTU21D;52787;51.084;5.816;2024-03-02T01:28:39;9.59;76.28
66019;HTU21D;52787;51.084;5.816;2024-03-02T01:31:05;9.49;77.17
66019;HTU21D;52787;51.084;5.816;2024-03-02T01:33:30;9.46;77.01
66019;HTU21D;52787;51.084;5.816;2024-03-02T01:35:56;9.48;77.09
66019;HTU21D;52787;51.084;5.816;2024-03-02T01:38:22;9.52;77.17
66019;HTU21D;52787;51.084;5.816;2024-03-02T01:40:48;9.55;77.18
66019;HTU21D;52787;51.084;5.816;2024-03-02T01:43:14;9.60;77.11
66019;HTU21D;52787;51.084;5.816;2024-03-02T01:45:39;9.63;77.31
66019;HTU21D;52787;51.084;5.816;2024-03-02T01:48:06;9.64;77.47
66019;HTU21D;52787;51.084;5.816;2024-03-02T01:50:33;9.67;77.51
66019;HTU21D;52787;51.084;5.816;2024-03-02T01:53:00;9.68;77.69
66019;HTU21D;52787;51.084;5.816;2024-03-02T01:55:28;9.70;77.92
66019;HTU21D;52787;51.084;5.816;2024-03-02T01:57:56;9.71;77.89
66019;HTU21D;52787;51.084;5.816;2024-03-02T02:00:22;9.72;77.25
66019;HTU21D;52787;51.084;5.816;2024-03-02T02:02:50;9.70;76.75
66019;HTU21D;52787;51.084;5.816;2024-03-02T02:05:17;9.67;75.79
66019;HTU21D;52787;51.084;5.816;2024-03-02T02:07:43;9.65;75.50
66019;HTU21D;52787;51.084;5.816;2024-03-02T02:10:12;9.65;75.31
66019;HTU21D;52787;51.084;5.816;2024-03-02T02:12:39;9.61;75.49
66019;HTU21D;52787;51.084;5.816;2024-03-02T02:15:27;9.56;75.09
66019;HTU21D;52787;51.084;5.816;2024-03-02T02:17:55;9.52;74.51
66019;HTU21D;52787;51.084;5.816;2024-03-02T02:20:21;9.49;74.77
66019;HTU21D;52787;51.084;5.816;2024-03-02T02:25:20;9.45;75.01
66019;HTU21D;52787;51.084;5.816;2024-03-02T02:27:46;9.39;75.06
66019;HTU21D;52787;51.084;5.816;2024-03-02T02:30:12;9.37;75.21
66019;HTU21D;52787;51.084;5.816;2024-03-02T02:32:38;9.36;75.31
66019;HTU21D;52787;51.084;5.816;2024-03-02T02:35:04;9.35;74.99
66019;HTU21D;52787;51.084;5.816;2024-03-02T02:37:31;9.32;74.99
66019;HTU21D;52787;51.084;5.816;2024-03-02T02:39:56;9.34;74.97
66019;HTU21D;52787;51.084;5.816;2024-03-02T02:42:22;9.35;74.46
66019;HTU21D;52787;51.084;5.816;2024-03-02T02:44:48;9.37;74.27
66019;HTU21D;52787;51.084;5.816;2024-03-02T02:47:13;9.37;74.56
66019;HTU21D;52787;51.084;5.816;2024-03-02T02:49:39;9.42;74.41
66019;HTU21D;52787;51.084;5.816;2024-03-02T02:52:05;9.41;74.21
66019;HTU21D;52787;51.084;5.816;2024-03-02T02:54:31;9.41;74.15
66019;HTU21D;52787;51.084;5.816;2024-03-02T02:56:58;9.44;74.17
66019;HTU21D;52787;51.084;5.816;2024-03-02T02:59:24;9.45;73.82
66019;HTU21D;52787;51.084;5.816;2024-03-02T03:01:51;9.44;73.71
66019;HTU21D;52787;51.084;5.816;2024-03-02T03:04:17;9.42;73.67
66019;HTU21D;52787;51.084;5.816;2024-03-02T03:06:43;9.44;73.63
66019;HTU21D;52787;51.084;5.816;2024-03-02T03:09:09;9.47;73.73
66019;HTU21D;52787;51.084;5.816;2024-03-02T03:11:36;9.49;72.94
66019;HTU21D;52787;51.084;5.816;2024-03-02T03:14:02;9.51;72.61
66019;HTU21D;52787;51.084;5.816;2024-03-02T03:16:28;9.51;72.55
66019;HTU21D;52787;51.084;5.816;2024-03-02T03:18:54;9.52;72.18
66019;HTU21D;52787;51.084;5.816;2024-03-02T03:21:20;9.52;72.28
66019;HTU21D;52787;51.084;5.816;2024-03-02T03:23:46;9.50;72.11
66019;HTU21D;52787;51.084;5.816;2024-03-02T03:26:12;9.47;71.96
66019;HTU21D;52787;51.084;5.816;2024-03-02T03:28:38;9.46;72.09
66019;HTU21D;52787;51.084;5.816;2024-03-02T03:31:04;9.46;72.30
66019;HTU21D;52787;51.084;5.816;2024-03-02T03:33:30;9.52;72.39
66019;HTU21D;52787;51.084;5.816;2024-03-02T03:35:56;9.56;72.23
66019;HTU21D;52787;51.084;5.816;2024-03-02T03:38:21;9.56;71.71
66019;HTU21D;52787;51.084;5.816;2024-03-02T03:40:47;9.56;71.48
66019;HTU21D;52787;51.084;5.816;2024-03-02T03:43:13;9.61;71.45
66019;HTU21D;52787;51.084;5.816;2024-03-02T03:45:39;9.65;71.05
66019;HTU21D;52787;51.084;5.816;2024-03-02T03:48:05;9.62;71.13
66019;HTU21D;52787;51.084;5.816;2024-03-02T03:50:31;9.64;71.07
66019;HTU21D;52787;51.084;5.816;2024-03-02T03:52:57;9.66;71.00
66019;HTU21D;52787;51.084;5.816;2024-03-02T03:55:22;9.65;71.22
66019;HTU21D;52787;51.084;5.816;2024-03-02T03:57:48;9.67;71.10
66019;HTU21D;52787;51.084;5.816;2024-03-02T04:00:14;9.71;71.15
66019;HTU21D;52787;51.084;5.816;2024-03-02T04:02:40;9.78;71.19
66019;HTU21D;52787;51.084;5.816;2024-03-02T04:05:06;9.85;71.00
66019;HTU21D;52787;51.084;5.816;2024-03-02T04:07:39;9.88;70.86
66019;HTU21D;52787;51.084;5.816;2024-03-02T04:10:09;9.92;71.26
66019;HTU21D;52787;51.084;5.816;2024-03-02T04:12:38;9.96;71.10
66019;HTU21D;52787;51.084;5.816;2024-03-02T04:15:05;9.98;71.29
66019;HTU21D;52787;51.084;5.816;2024-03-02T04:17:33;10.04;71.53
66019;HTU21D;52787;51.084;5.816;2024-03-02T04:19:59;10.06;71.26
66019;HTU21D;52787;51.084;5.816;2024-03-02T04:22:26;10.00;71.16
66019;HTU21D;52787;51.084;5.816;2024-03-02T04:24:53;9.95;71.46
66019;HTU21D;52787;51.084;5.816;2024-03-02T04:27:19;9.91;72.03
66019;HTU21D;52787;51.084;5.816;2024-03-02T04:29:45;9.90;71.99
66019;HTU21D;52787;51.084;5.816;2024-03-02T04:32:11;9.90;72.35
66019;HTU21D;52787;51.084;5.816;2024-03-02T04:34:37;9.89;72.28
66019;HTU21D;52787;51.084;5.816;2024-03-02T04:37:02;9.88;72.38
66019;HTU21D;52787;51.084;5.816;2024-03-02T04:39:28;9.86;72.70
66019;HTU21D;52787;51.084;5.816;2024-03-02T04:41:54;9.85;72.69
66019;HTU21D;52787;51.084;5.816;2024-03-02T04:44:19;9.85;72.93
66019;HTU21D;52787;51.084;5.816;2024-03-02T04:46:45;9.88;73.14
66019;HTU21D;52787;51.084;5.816;2024-03-02T04:49:11;9.89;73.12
66019;HTU21D;52787;51.084;5.816;2024-03-02T04:51:37;9.89;73.22
66019;HTU21D;52787;51.084;5.816;2024-03-02T04:54:02;9.86;73.12
66019;HTU21D;52787;51.084;5.816;2024-03-02T04:56:28;9.83;73.12
66019;HTU21D;52787;51.084;5.816;2024-03-02T04:58:56;9.82;73.05
66019;HTU21D;52787;51.084;5.816;2024-03-02T05:01:22;9.83;72.61
66019;HTU21D;52787;51.084;5.816;2024-03-02T05:03:48;9.81;72.48
66019;HTU21D;52787;51.084;5.816;2024-03-02T05:06:14;9.78;72.24
66019;HTU21D;52787;51.084;5.816;2024-03-02T05:08:39;9.76;72.51
66019;HTU21D;52787;51.084;5.816;2024-03-02T05:11:05;9.76;72.03
66019;HTU21D;52787;51.084;5.816;2024-03-02T05:13:49;9.75;72.13
66019;HTU21D;52787;51.084;5.816;2024-03-02T05:16:15;9.74;72.11
66019;HTU21D;52787;51.084;5.816;2024-03-02T05:18:41;9.75;71.94
66019;HTU21D;52787;51.084;5.816;2024-03-02T05:21:07;9.75;71.89
66019;HTU21D;52787;51.084;5.816;2024-03-02T05:23:32;9.74;71.95
66019;HTU21D;52787;51.084;5.816;2024-03-02T05:25:58;9.75;71.93
66019;HTU21D;52787;51.084;5.816;2024-03-02T05:28:24;9.75;71.69
66019;HTU21D;52787;51.084;5.816;2024-03-02T05:30:50;9.74;71.66
66019;HTU21D;52787;51.084;5.816;2024-03-02T05:33:16;9.71;71.42
66019;HTU21D;52787;51.084;5.816;2024-03-02T05:35:44;9.69;71.08
66019;HTU21D;52787;51.084;5.816;2024-03-02T05:38:09;9.65;71.12
66019;HTU21D;52787;51.084;5.816;2024-03-02T05:40:35;9.66;70.96
66019;HTU21D;52787;51.084;5.816;2024-03-02T05:43:01;9.65;70.67
66019;HTU21D;52787;51.084;5.816;2024-03-02T05:45:27;9.63;70.53
66019;HTU21D;52787;51.084;5.816;2024-03-02T05:47:52;9.64;70.52
66019;HTU21D;52787;51.084;5.816;2024-03-02T05:50:18;9.66;70.32
66019;HTU21D;52787;51.084;5.816;2024-03-02T05:52:45;9.66;70.06
66019;HTU21D;52787;51.084;5.816;2024-03-02T05:55:11;9.64;69.92
66019;HTU21D;52787;51.084;5.816;2024-03-02T05:57:36;9.61;70.03
66019;HTU21D;52787;51.084;5.816;2024-03-02T06:00:20;9.60;70.15
66019;HTU21D;52787;51.084;5.816;2024-03-02T06:02:47;9.59;70.29
66019;HTU21D;52787;51.084;5.816;2024-03-02T06:05:13;9.60;69.84
66019;HTU21D;52787;51.084;5.816;2024-03-02T06:07:40;9.61;69.39
66019;HTU21D;52787;51.084;5.816;2024-03-02T06:10:06;9.62;69.01
66019;HTU21D;52787;51.084;5.816;2024-03-02T06:12:34;9.61;69.11
66019;HTU21D;52787;51.084;5.816;2024-03-02T06:15:00;9.61;68.70
66019;HTU21D;52787;51.084;5.816;2024-03-02T06:17:26;9.57;68.74
66019;HTU21D;52787;51.084;5.816;2024-03-02T06:19:51;9.59;68.46
66019;HTU21D;52787;51.084;5.816;2024-03-02T06:22:18;9.56;68.68
66019;HTU21D;52787;51.084;5.816;2024-03-02T06:24:44;9.59;68.58
66019;HTU21D;52787;51.084;5.816;2024-03-02T06:27:10;9.56;68.33
66019;HTU21D;52787;51.084;5.816;2024-03-02T06:29:36;9.52;67.84
66019;HTU21D;52787;51.084;5.816;2024-03-02T06:32:01;9.47;68.06
66019;HTU21D;52787;51.084;5.816;2024-03-02T06:34:27;9.46;68.17
66019;HTU21D;52787;51.084;5.816;2024-03-02T06:36:53;9.44;68.44
66019;HTU21D;52787;51.084;5.816;2024-03-02T06:39:19;9.44;68.29
66019;HTU21D;52787;51.084;5.816;2024-03-02T06:41:45;9.45;68.42
66019;HTU21D;52787;51.084;5.816;2024-03-02T06:44:13;9.44;68.65
66019;HTU21D;52787;51.084;5.816;2024-03-02T06:46:38;9.50;68.52
66019;HTU21D;52787;51.084;5.816;2024-03-02T06:49:04;9.53;68.32
66019;HTU21D;52787;51.084;5.816;2024-03-02T06:51:30;9.54;68.18
66019;HTU21D;52787;51.084;5.816;2024-03-02T06:53:56;9.55;68.20
66019;HTU21D;52787;51.084;5.816;2024-03-02T06:56:22;9.59;67.69
66019;HTU21D;52787;51.084;5.816;2024-03-02T06:58:48;9.56;67.71
66019;HTU21D;52787;51.084;5.816;2024-03-02T07:01:14;9.56;67.76
66019;HTU21D;52787;51.084;5.816;2024-03-02T07:03:40;9.56;67.82
66019;HTU21D;52787;51.084;5.816;2024-03-02T07:06:06;9.59;67.76
66019;HTU21D;52787;51.084;5.816;2024-03-02T07:08:31;9.61;67.52
66019;HTU21D;52787;51.084;5.816;2024-03-02T07:10:57;9.60;67.51
66019;HTU21D;52787;51.084;5.816;2024-03-02T07:13:23;9.60;67.68
66019;HTU21D;52787;51.084;5.816;2024-03-02T07:15:49;9.64;67.58
66019;HTU21D;52787;51.084;5.816;2024-03-02T07:18:30;9.71;67.53
66019;HTU21D;52787;51.084;5.816;2024-03-02T07:20:57;9.78;67.49
66019;HTU21D;52787;51.084;5.816;2024-03-02T07:23:29;9.88;67.42
66019;HTU21D;52787;51.084;5.816;2024-03-02T07:25:56;9.94;67.10
66019;HTU21D;52787;51.084;5.816;2024-03-02T07:28:23;9.98;66.72
66019;HTU21D;52787;51.084;5.816;2024-03-02T07:31:03;10.04;66.47
66019;HTU21D;52787;51.084;5.816;2024-03-02T07:33:30;10.07;66.46
66019;HTU21D;52787;51.084;5.816;2024-03-02T07:35:57;10.10;66.64
66019;HTU21D;52787;51.084;5.816;2024-03-02T07:38:25;10.14;66.52
66019;HTU21D;52787;51.084;5.816;2024-03-02T07:40:52;10.18;66.26
66019;HTU21D;52787;51.084;5.816;2024-03-02T07:43:19;10.20;66.31
66019;HTU21D;52787;51.084;5.816;2024-03-02T07:45:46;10.19;66.17
66019;HTU21D;52787;51.084;5.816;2024-03-02T07:48:12;10.23;66.11
66019;HTU21D;52787;51.084;5.816;2024-03-02T07:50:39;10.23;66.20
66019;HTU21D;52787;51.084;5.816;2024-03-02T07:53:05;10.27;65.92
66019;HTU21D;52787;51.084;5.816;2024-03-02T07:55:33;10.28;66.04
66019;HTU21D;52787;51.084;5.816;2024-03-02T07:58:03;10.33;66.14
66019;HTU21D;52787;51.084;5.816;2024-03-02T08:00:29;10.29;65.72
66019;HTU21D;52787;51.084;5.816;2024-03-02T08:02:55;10.21;65.88
66019;HTU21D;52787;51.084;5.816;2024-03-02T08:05:21;10.16;65.72
66019;HTU21D;52787;51.084;5.816;2024-03-02T08:07:48;10.10;66.11
66019;HTU21D;52787;51.084;5.816;2024-03-02T08:10:18;10.12;66.32
66019;HTU21D;52787;51.084;5.816;2024-03-02T08:12:44;10.15;66.57
66019;HTU21D;52787;51.084;5.816;2024-03-02T08:15:11;10.21;66.55
66019;HTU21D;52787;51.084;5.816;2024-03-02T08:17:39;10.24;66.49
66019;HTU21D;52787;51.084;5.816;2024-03-02T08:20:13;10.29;66.56
66019;HTU21D;52787;51.084;5.816;2024-03-02T08:22:40;10.34;66.51
66019;HTU21D;52787;51.084;5.816;2024-03-02T08:25:07;10.37;66.20
66019;HTU21D;52787;51.084;5.816;2024-03-02T08:27:33;10.37;66.36
66019;HTU21D;52787;51.084;5.816;2024-03-02T08:29:59;10.42;66.34
66019;HTU21D;52787;51.084;5.816;2024-03-02T08:32:25;10.46;65.55
66019;HTU21D;52787;51.084;5.816;2024-03-02T08:34:51;10.49;65.62
66019;HTU21D;52787;51.084;5.816;2024-03-02T08:37:16;10.56;65.80
66019;HTU21D;52787;51.084;5.816;2024-03-02T08:39:42;10.59;65.49
66019;HTU21D;52787;51.084;5.816;2024-03-02T08:42:09;10.62;65.15
66019;HTU21D;52787;51.084;5.816;2024-03-02T08:44:35;10.62;65.31
66019;HTU21D;52787;51.084;5.816;2024-03-02T08:47:01;10.65;65.11
66019;HTU21D;52787;51.084;5.816;2024-03-02T08:49:27;10.67;65.09
66019;HTU21D;52787;51.084;5.816;2024-03-02T08:51:53;10.69;64.99
66019;HTU21D;52787;51.084;5.816;2024-03-02T08:54:22;10.74;65.02
66019;HTU21D;52787;51.084;5.816;2024-03-02T08:56:49;10.81;64.46
66019;HTU21D;52787;51.084;5.816;2024-03-02T08:59:16;10.85;64.46
66019;HTU21D;52787;51.084;5.816;2024-03-02T09:01:42;10.93;64.18
66019;HTU21D;52787;51.084;5.816;2024-03-02T09:04:08;11.00;64.01
66019;HTU21D;52787;51.084;5.816;2024-03-02T09:06:35;11.10;63.67
66019;HTU21D;52787;51.084;5.816;2024-03-02T09:09:00;11.17;62.96
66019;HTU21D;52787;51.084;5.816;2024-03-02T09:11:26;11.24;63.08
66019;HTU21D;52787;51.084;5.816;2024-03-02T09:13:52;11.36;62.92
66019;HTU21D;52787;51.084;5.816;2024-03-02T09:16:19;11.43;62.15
66019;HTU21D;52787;51.084;5.816;2024-03-02T09:18:45;11.54;61.90
66019;HTU21D;52787;51.084;5.816;2024-03-02T09:21:10;11.66;61.70
66019;HTU21D;52787;51.084;5.816;2024-03-02T09:23:36;11.82;61.05
66019;HTU21D;52787;51.084;5.816;2024-03-02T09:26:02;11.92;60.29
66019;HTU21D;52787;51.084;5.816;2024-03-02T09:28:28;12.00;59.41
66019;HTU21D;52787;51.084;5.816;2024-03-02T09:30:54;12.01;58.82
66019;HTU21D;52787;51.084;5.816;2024-03-02T09:33:20;12.08;58.92
66019;HTU21D;52787;51.084;5.816;2024-03-02T09:35:46;12.20;58.88
66019;HTU21D;52787;51.084;5.816;2024-03-02T09:38:11;12.28;58.99
66019;HTU21D;52787;51.084;5.816;2024-03-02T09:40:37;12.37;58.38
66019;HTU21D;52787;51.084;5.816;2024-03-02T09:43:03;12.46;57.82
66019;HTU21D;52787;51.084;5.816;2024-03-02T09:45:30;12.48;56.84
66019;HTU21D;52787;51.084;5.816;2024-03-02T09:47:56;12.56;57.55
66019;HTU21D;52787;51.084;5.816;2024-03-02T09:50:22;12.73;56.26
66019;HTU21D;52787;51.084;5.816;2024-03-02T09:52:49;12.81;56.06
66019;HTU21D;52787;51.084;5.816;2024-03-02T09:55:19;12.95;55.90
66019;HTU21D;52787;51.084;5.816;2024-03-02T09:57:45;13.08;55.64
66019;HTU21D;52787;51.084;5.816;2024-03-02T10:00:14;13.14;55.13
66019;HTU21D;52787;51.084;5.816;2024-03-02T10:02:41;13.23;54.98
66019;HTU21D;52787;51.084;5.816;2024-03-02T10:05:08;13.31;53.81
66019;HTU21D;52787;51.084;5.816;2024-03-02T10:07:34;13.37;54.00
66019;HTU21D;52787;51.084;5.816;2024-03-02T10:10:13;14.20;52.74
66019;HTU21D;52787;51.084;5.816;2024-03-02T10:12:39;15.28;48.74
66019;HTU21D;52787;51.084;5.816;2024-03-02T10:15:05;16.36;46.85
66019;HTU21D;52787;51.084;5.816;2024-03-02T10:17:33;17.62;44.48
66019;HTU21D;52787;51.084;5.816;2024-03-02T10:19:58;18.53;41.63
66019;HTU21D;52787;51.084;5.816;2024-03-02T10:22:24;19.11;39.75
66019;HTU21D;52787;51.084;5.816;2024-03-02T10:24:52;19.45;38.44
66019;HTU21D;52787;51.084;5.816;2024-03-02T10:27:27;19.38;37.90
66019;HTU21D;52787;51.084;5.816;2024-03-02T10:29:54;19.41;37.75
66019;HTU21D;52787;51.084;5.816;2024-03-02T10:32:22;19.17;38.32
66019;HTU21D;52787;51.084;5.816;2024-03-02T10:34:50;19.41;38.56
66019;HTU21D;52787;51.084;5.816;2024-03-02T10:37:16;19.44;38.01
66019;HTU21D;52787;51.084;5.816;2024-03-02T10:39:46;18.91;38.41
66019;HTU21D;52787;51.084;5.816;2024-03-02T10:42:14;18.23;40.04
66019;HTU21D;52787;51.084;5.816;2024-03-02T10:44:41;17.54;41.93
66019;HTU21D;52787;51.084;5.816;2024-03-02T10:47:08;17.01;43.35
66019;HTU21D;52787;51.084;5.816;2024-03-02T10:49:34;16.66;44.09
66019;HTU21D;52787;51.084;5.816;2024-03-02T10:52:01;16.46;44.35
66019;HTU21D;52787;51.084;5.816;2024-03-02T10:54:27;16.40;44.88
66019;HTU21D;52787;51.084;5.816;2024-03-02T10:57:01;16.43;44.75
66019;HTU21D;52787;51.084;5.816;2024-03-02T10:59:37;16.67;44.55
66019;HTU21D;52787;51.084;5.816;2024-03-02T11:02:21;17.41;42.89
66019;HTU21D;52787;51.084;5.816;2024-03-02T11:04:49;18.50;41.10
66019;HTU21D;52787;51.084;5.816;2024-03-02T11:07:18;19.71;37.90
66019;HTU21D;52787;51.084;5.816;2024-03-02T11:09:54;20.41;35.87
66019;HTU21D;52787;51.084;5.816;2024-03-02T11:12:36;21.10;34.79
66019;HTU21D;52787;51.084;5.816;2024-03-02T11:15:18;21.84;33.20
66019;HTU21D;52787;51.084;5.816;2024-03-02T11:17:48;22.26;31.90
66019;HTU21D;52787;51.084;5.816;2024-03-02T11:20:14;22.16;30.57
66019;HTU21D;52787;51.084;5.816;2024-03-02T11:22:40;21.85;31.16
66019;HTU21D;52787;51.084;5.816;2024-03-02T11:25:26;21.57;32.20
66019;HTU21D;52787;51.084;5.816;2024-03-02T11:33:04;22.36;31.03
66019;HTU21D;52787;51.084;5.816;2024-03-02T11:35:34;22.56;29.40
66019;HTU21D;52787;51.084;5.816;2024-03-02T11:38:01;22.31;30.99
66019;HTU21D;52787;51.084;5.816;2024-03-02T11:40:29;21.64;32.23
66019;HTU21D;52787;51.084;5.816;2024-03-02T11:42:57;20.96;34.07
66019;HTU21D;52787;51.084;5.816;2024-03-02T11:45:26;20.83;34.88
66019;HTU21D;52787;51.084;5.816;2024-03-02T11:47:57;21.33;34.09
66019;HTU21D;52787;51.084;5.816;2024-03-02T11:50:29;21.78;32.58
66019;HTU21D;52787;51.084;5.816;2024-03-02T11:52:58;22.03;30.35
66019;HTU21D;52787;51.084;5.816;2024-03-02T11:55:26;22.02;31.13
66019;HTU21D;52787;51.084;5.816;2024-03-02T11:57:52;22.56;30.22
66019;HTU21D;52787;51.084;5.816;2024-03-02T12:00:19;22.88;29.97
66019;HTU21D;52787;51.084;5.816;2024-03-02T12:03:06;23.72;29.12
66019;HTU21D;52787;51.084;5.816;2024-03-02T12:05:34;24.40;28.11
66019;HTU21D;52787;51.084;5.816;2024-03-02T12:08:05;24.90;27.17
66019;HTU21D;52787;51.084;5.816;2024-03-02T12:10:33;25.22;25.70
66019;HTU21D;52787;51.084;5.816;2024-03-02T12:13:02;25.47;25.59
66019;HTU21D;52787;51.084;5.816;2024-03-02T12:15:31;25.52;25.59
66019;HTU21D;52787;51.084;5.816;2024-03-02T12:18:01;25.44;25.67
66019;HTU21D;52787;51.084;5.816;2024-03-02T12:20:29;24.63;25.41
66019;HTU21D;52787;51.084;5.816;2024-03-02T12:22:59;23.15;28.16
66019;HTU21D;52787;51.084;5.816;2024-03-02T12:25:26;22.06;30.16
66019;HTU21D;52787;51.084;5.816;2024-03-02T12:27:57;21.48;31.93
66019;HTU21D;52787;51.084;5.816;2024-03-02T12:30:29;21.15;32.33
66019;HTU21D;52787;51.084;5.816;2024-03-02T12:32:55;20.79;33.31
66019;HTU21D;52787;51.084;5.816;2024-03-02T12:35:21;20.71;34.42
66019;HTU21D;52787;51.084;5.816;2024-03-02T12:37:49;20.84;34.31
66019;HTU21D;52787;51.084;5.816;2024-03-02T12:40:18;21.18;34.08
66019;HTU21D;52787;51.084;5.816;2024-03-02T12:42:46;21.95;33.74
66019;HTU21D;52787;51.084;5.816;2024-03-02T12:45:12;22.97;31.12
66019;HTU21D;52787;51.084;5.816;2024-03-02T12:47:42;24.06;29.44
66019;HTU21D;52787;51.084;5.816;2024-03-02T12:50:09;24.93;27.49
66019;HTU21D;52787;51.084;5.816;2024-03-02T12:52:36;25.37;26.61
66019;HTU21D;52787;51.084;5.816;2024-03-02T12:55:04;25.99;25.36
66019;HTU21D;52787;51.084;5.816;2024-03-02T12:57:34;26.38;24.83
66019;HTU21D;52787;51.084;5.816;2024-03-02T13:00:05;25.97;24.67
66019;HTU21D;52787;51.084;5.816;2024-03-02T13:02:41;24.59;26.43
66019;HTU21D;52787;51.084;5.816;2024-03-02T13:05:08;24.28;27.79
66019;HTU21D;52787;51.084;5.816;2024-03-02T13:07:40;24.57;27.61
66019;HTU21D;52787;51.084;5.816;2024-03-02T13:10:07;25.48;26.78
66019;HTU21D;52787;51.084;5.816;2024-03-02T13:12:36;26.46;25.62
66019;HTU21D;52787;51.084;5.816;2024-03-02T13:15:03;26.71;24.23
66019;HTU21D;52787;51.084;5.816;2024-03-02T13:17:30;25.65;25.51
66019;HTU21D;52787;51.084;5.816;2024-03-02T13:20:01;24.06;26.79
66019;HTU21D;52787;51.084;5.816;2024-03-02T13:22:29;22.33;29.80
66019;HTU21D;52787;51.084;5.816;2024-03-02T13:24:55;21.04;32.51
66019;HTU21D;52787;51.084;5.816;2024-03-02T13:27:21;20.14;34.68
66019;HTU21D;52787;51.084;5.816;2024-03-02T13:29:47;20.04;35.81
66019;HTU21D;52787;51.084;5.816;2024-03-02T13:32:14;20.27;35.63
66019;HTU21D;52787;51.084;5.816;2024-03-02T13:34:40;20.86;35.34
66019;HTU21D;52787;51.084;5.816;2024-03-02T13:37:07;21.91;34.26
66019;HTU21D;52787;51.084;5.816;2024-03-02T13:39:33;22.97;32.41
66019;HTU21D;52787;51.084;5.816;2024-03-02T13:42:06;23.61;30.30
66019;HTU21D;52787;51.084;5.816;2024-03-02T13:44:34;24.23;28.87
66019;HTU21D;52787;51.084;5.816;2024-03-02T13:47:00;23.92;29.21
66019;HTU21D;52787;51.084;5.816;2024-03-02T13:49:26;24.00;29.10
66019;HTU21D;52787;51.084;5.816;2024-03-02T13:52:00;23.86;29.54
66019;HTU21D;52787;51.084;5.816;2024-03-02T13:54:29;23.62;29.66
66019;HTU21D;52787;51.084;5.816;2024-03-02T13:56:56;23.20;30.38
66019;HTU21D;52787;51.084;5.816;2024-03-02T13:59:30;22.61;31.20
66019;HTU21D;52787;51.084;5.816;2024-03-02T14:02:02;22.26;32.28
66019;HTU21D;52787;51.084;5.816;2024-03-02T14:04:32;22.13;32.64
66019;HTU21D;52787;51.084;5.816;2024-03-02T14:06:59;21.89;32.08
66019;HTU21D;52787;51.084;5.816;2024-03-02T14:09:25;21.40;33.47
66019;HTU21D;52787;51.084;5.816;2024-03-02T14:11:53;20.89;33.73
66019;HTU21D;52787;51.084;5.816;2024-03-02T14:14:19;20.56;34.44
66019;HTU21D;52787;51.084;5.816;2024-03-02T14:16:52;20.53;34.77
66019;HTU21D;52787;51.084;5.816;2024-03-02T14:19:19;20.54;34.60
66019;HTU21D;52787;51.084;5.816;2024-03-02T14:21:47;20.57;36.11
66019;HTU21D;52787;51.084;5.816;2024-03-02T14:24:14;22.07;33.85
66019;HTU21D;52787;51.084;5.816;2024-03-02T14:26:40;22.70;31.35
66019;HTU21D;52787;51.084;5.816;2024-03-02T14:29:06;23.49;31.27
66019;HTU21D;52787;51.084;5.816;2024-03-02T14:31:32;23.55;28.92
66019;HTU21D;52787;51.084;5.816;2024-03-02T14:33:59;22.37;30.83
66019;HTU21D;52787;51.084;5.816;2024-03-02T14:36:25;21.35;32.64
66019;HTU21D;52787;51.084;5.816;2024-03-02T14:38:53;20.36;34.67
66019;HTU21D;52787;51.084;5.816;2024-03-02T14:41:19;19.96;37.19
66019;HTU21D;52787;51.084;5.816;2024-03-02T14:43:45;20.58;34.91
66019;HTU21D;52787;51.084;5.816;2024-03-02T14:46:11;21.67;33.75
66019;HTU21D;52787;51.084;5.816;2024-03-02T14:48:38;22.97;30.80
66019;HTU21D;52787;51.084;5.816;2024-03-02T14:51:04;23.73;29.22
66019;HTU21D;52787;51.084;5.816;2024-03-02T14:53:30;23.06;29.06
66019;HTU21D;52787;51.084;5.816;2024-03-02T14:55:56;21.59;31.73
66019;HTU21D;52787;51.084;5.816;2024-03-02T14:58:23;20.54;34.54
66019;HTU21D;52787;51.084;5.816;2024-03-02T15:00:48;19.88;35.98
66019;HTU21D;52787;51.084;5.816;2024-03-02T15:03:14;19.29;37.59
66019;HTU21D;52787;51.084;5.816;2024-03-02T15:05:40;18.93;38.57
66019;HTU21D;52787;51.084;5.816;2024-03-02T15:08:06;18.59;39.53
66019;HTU21D;52787;51.084;5.816;2024-03-02T15:10:32;18.21;40.45
66019;HTU21D;52787;51.084;5.816;2024-03-02T15:12:59;17.97;41.50
66019;HTU21D;52787;51.084;5.816;2024-03-02T15:15:25;17.88;42.15
66019;HTU21D;52787;51.084;5.816;2024-03-02T15:17:51;17.73;42.55
66019;HTU21D;52787;51.084;5.816;2024-03-02T15:20:17;17.50;43.02
66019;HTU21D;52787;51.084;5.816;2024-03-02T15:22:45;17.36;43.99
66019;HTU21D;52787;51.084;5.816;2024-03-02T15:25:11;17.22;43.94
66019;HTU21D;52787;51.084;5.816;2024-03-02T15:27:38;17.11;44.58
66019;HTU21D;52787;51.084;5.816;2024-03-02T15:30:05;17.03;44.58
66019;HTU21D;52787;51.084;5.816;2024-03-02T15:32:32;16.90;44.46
66019;HTU21D;52787;51.084;5.816;2024-03-02T15:34:59;16.79;44.48